createdAt,value
2022-11-28T00:01:22.801Z,7.53
2022-11-28T00:03:49.930Z,12.75
2022-11-28T00:06:17.519Z,11.07
2022-11-28T00:08:44.504Z,12.73
2022-11-28T00:11:13.577Z,20.02
2022-11-28T00:13:41.024Z,9.45
2022-11-28T00:16:16.337Z,16.70
2022-11-28T00:18:43.507Z,7.97
2022-11-28T00:21:12.928Z,10.30
2022-11-28T00:23:40.343Z,8.50
2022-11-28T00:26:10.180Z,9.00
2022-11-28T00:28:37.628Z,7.25
2022-11-28T00:31:15.700Z,12.07
2022-11-28T00:33:42.752Z,8.70
2022-11-28T00:36:12.841Z,8.07
2022-11-28T00:38:40.057Z,8.77
2022-11-28T00:41:14.413Z,9.45
2022-11-28T00:43:43.053Z,8.10
2022-11-28T00:46:10.344Z,7.93
2022-11-28T00:48:37.524Z,9.00
2022-11-28T00:51:09.643Z,7.35
2022-11-28T00:53:42.051Z,10.07
2022-11-28T00:56:13.546Z,9.18
2022-11-28T00:58:41.347Z,12.55
2022-11-28T01:01:28.756Z,8.63
2022-11-28T01:03:57.296Z,8.27
2022-11-28T01:06:32.672Z,8.30
2022-11-28T01:09:01.355Z,8.38
2022-11-28T01:11:29.161Z,7.78
2022-11-28T01:13:57.805Z,7.93
2022-11-28T01:16:25.442Z,14.45
2022-11-28T01:18:52.535Z,8.43
2022-11-28T01:21:22.224Z,8.55
2022-11-28T01:23:49.202Z,8.55
2022-11-28T01:26:19.736Z,7.40
2022-11-28T01:28:47.178Z,7.60
2022-11-28T01:31:16.631Z,8.35
2022-11-28T01:33:43.819Z,10.75
2022-11-28T01:36:11.164Z,12.15
2022-11-28T01:38:38.072Z,7.78
2022-11-28T01:41:05.443Z,9.07
2022-11-28T01:43:32.626Z,8.50
2022-11-28T01:46:00.140Z,9.38
2022-11-28T01:48:31.518Z,10.13
2022-11-28T01:51:02.488Z,8.20
2022-11-28T01:53:31.260Z,9.30
2022-11-28T01:56:03.920Z,10.68
2022-11-28T01:58:31.019Z,9.98
2022-11-28T02:00:58.285Z,7.93
2022-11-28T02:03:41.789Z,9.00
2022-11-28T02:06:09.350Z,9.50
2022-11-28T02:08:36.878Z,8.68
2022-11-28T02:11:42.217Z,8.35
2022-11-28T02:14:29.779Z,10.27
2022-11-28T02:17:22.190Z,7.72
2022-11-28T02:20:04.087Z,8.80
2022-11-28T02:22:38.348Z,11.50
2022-11-28T02:25:15.869Z,9.52
2022-11-28T02:28:00.593Z,10.52
2022-11-28T02:30:34.135Z,12.13
2022-11-28T02:33:23.747Z,8.98
2022-11-28T02:36:06.034Z,11.48
2022-11-28T02:38:50.659Z,7.28
2022-11-28T02:41:32.929Z,10.32
2022-11-28T02:44:10.807Z,9.85
2022-11-28T02:46:45.432Z,10.30
2022-11-28T02:49:18.879Z,10.88
2022-11-28T02:52:28.944Z,9.95
2022-11-28T02:54:56.144Z,8.43
2022-11-28T02:57:23.312Z,9.20
2022-11-28T02:59:51.946Z,11.25
2022-11-28T03:02:29.272Z,8.38
2022-11-28T03:05:19.922Z,12.98
2022-11-28T03:08:00.855Z,14.60
2022-11-28T03:10:59.846Z,10.63
2022-11-28T03:14:01.701Z,8.98
2022-11-28T03:16:40.459Z,10.25
2022-11-28T03:19:20.094Z,9.60
2022-11-28T03:22:07.830Z,9.52
2022-11-28T03:24:36.125Z,9.60
2022-11-28T03:27:26.015Z,10.00
2022-11-28T03:30:15.181Z,12.00
2022-11-28T03:32:42.787Z,12.68
2022-11-28T03:35:16.622Z,10.00
2022-11-28T03:37:48.904Z,11.85
2022-11-28T03:40:20.552Z,10.38
2022-11-28T03:42:59.277Z,8.60
2022-11-28T03:45:29.094Z,9.75
2022-11-28T03:48:01.742Z,8.73
2022-11-28T03:50:39.704Z,11.43
2022-11-28T03:53:12.309Z,9.88
2022-11-28T03:55:48.613Z,13.75
2022-11-28T03:58:15.588Z,11.98
2022-11-28T04:00:52.235Z,10.13
2022-11-28T04:03:50.968Z,10.23
2022-11-28T04:06:44.901Z,11.25
2022-11-28T04:09:17.117Z,9.45
2022-11-28T04:11:50.992Z,14.80
2022-11-28T04:14:25.141Z,9.65
2022-11-28T04:17:08.915Z,13.18
2022-11-28T04:19:44.088Z,18.23
2022-11-28T04:22:18.817Z,13.15
2022-11-28T04:24:55.469Z,9.63
2022-11-28T04:27:27.564Z,8.77
2022-11-28T04:29:57.241Z,10.82
2022-11-28T04:32:25.589Z,11.57
2022-11-28T04:35:06.615Z,10.18
2022-11-28T04:37:34.846Z,9.25
2022-11-28T04:40:02.409Z,12.82
2022-11-28T04:42:41.486Z,8.93
2022-11-28T04:45:15.399Z,11.65
2022-11-28T04:47:43.648Z,11.10
2022-11-28T04:50:11.068Z,7.40
2022-11-28T04:52:40.758Z,7.90
2022-11-28T04:55:26.530Z,8.73
2022-11-28T04:57:57.971Z,8.27
2022-11-28T05:00:24.858Z,6.70
2022-11-28T05:02:53.824Z,9.30
2022-11-28T05:05:24.248Z,9.10
2022-11-28T05:07:52.576Z,8.80
2022-11-28T05:10:19.950Z,8.98
2022-11-28T05:12:46.867Z,10.23
2022-11-28T05:15:19.031Z,8.52
2022-11-28T05:17:46.891Z,9.70
2022-11-28T05:20:14.451Z,10.32
2022-11-28T05:22:41.343Z,16.48
2022-11-28T05:25:08.775Z,10.48
2022-11-28T05:27:35.717Z,10.88
2022-11-28T05:30:02.978Z,11.10
2022-11-28T05:32:31.288Z,11.57
2022-11-28T05:34:58.396Z,11.48
2022-11-28T05:37:25.716Z,10.77
2022-11-28T05:39:52.552Z,13.95
2022-11-28T05:42:19.435Z,9.52
2022-11-28T05:44:47.876Z,9.65
2022-11-28T05:47:15.922Z,11.35
2022-11-28T05:49:43.103Z,11.00
2022-11-28T05:52:10.146Z,14.07
2022-11-28T05:54:36.987Z,9.35
2022-11-28T05:57:06.471Z,10.95
2022-11-28T05:59:33.503Z,13.07
2022-11-28T06:02:00.588Z,14.05
2022-11-28T06:04:27.521Z,13.40
2022-11-28T06:06:54.611Z,10.73
2022-11-28T06:09:25.612Z,10.73
2022-11-28T06:11:53.053Z,12.77
2022-11-28T06:14:20.025Z,10.45
2022-11-28T06:16:47.008Z,11.05
2022-11-28T06:19:14.159Z,11.27
2022-11-28T06:21:41.425Z,12.45
2022-11-28T06:24:09.173Z,12.18
2022-11-28T06:26:36.340Z,16.75
2022-11-28T06:29:03.293Z,13.52
2022-11-28T06:31:30.546Z,11.52
2022-11-28T06:33:58.595Z,10.57
2022-11-28T06:36:26.610Z,12.00
2022-11-28T06:38:54.222Z,10.55
2022-11-28T06:41:22.981Z,11.27
2022-11-28T06:43:50.183Z,16.38
2022-11-28T06:46:21.087Z,13.02
2022-11-28T06:48:49.333Z,19.70
2022-11-28T06:51:16.913Z,17.85
2022-11-28T06:53:43.833Z,12.77
2022-11-28T06:56:19.372Z,13.57
2022-11-28T06:58:47.010Z,13.93
2022-11-28T07:01:16.939Z,10.43
2022-11-28T07:03:44.776Z,10.82
2022-11-28T07:06:12.362Z,21.75
2022-11-28T07:08:39.716Z,13.00
2022-11-28T07:11:11.388Z,11.73
2022-11-28T07:13:38.709Z,14.23
2022-11-28T07:16:06.835Z,9.45
2022-11-28T07:18:34.396Z,10.45
2022-11-28T07:21:01.267Z,12.30
2022-11-28T07:23:28.264Z,10.52
2022-11-28T07:26:01.354Z,14.98
2022-11-28T07:31:01.067Z,12.05
2022-11-28T07:33:28.240Z,16.50
2022-11-28T07:35:55.151Z,13.15
2022-11-28T07:38:21.961Z,11.40
2022-11-28T07:40:48.780Z,15.65
2022-11-28T07:43:15.607Z,11.10
2022-11-28T07:46:00.121Z,8.57
2022-11-28T07:48:27.631Z,11.38
2022-11-28T07:50:54.444Z,13.18
2022-11-28T07:53:21.379Z,11.90
2022-11-28T07:55:48.317Z,8.00
2022-11-28T07:58:15.196Z,8.70
2022-11-28T08:00:42.104Z,9.15
2022-11-28T08:03:09.593Z,11.85
2022-11-28T08:05:36.479Z,8.95
2022-11-28T08:08:03.633Z,9.20
2022-11-28T08:10:30.523Z,9.38
2022-11-28T08:12:57.993Z,14.18
2022-11-28T08:15:24.834Z,11.55
2022-11-28T08:17:51.655Z,14.55
2022-11-28T08:20:18.606Z,7.88
2022-11-28T08:22:45.666Z,12.50
2022-11-28T08:25:12.537Z,24.00
2022-11-28T08:27:39.696Z,24.58
2022-11-28T08:30:07.566Z,20.95
2022-11-28T08:32:35.018Z,11.45
2022-11-28T08:35:01.966Z,14.02
2022-11-28T08:37:29.205Z,18.05
2022-11-28T08:39:56.095Z,42.30
2022-11-28T08:42:22.929Z,25.20
2022-11-28T08:44:49.817Z,27.92
2022-11-28T08:47:16.695Z,18.85
2022-11-28T08:49:43.810Z,36.28
2022-11-28T08:52:11.045Z,20.92
2022-11-28T08:54:38.027Z,23.58
2022-11-28T08:57:05.431Z,19.13
2022-11-28T08:59:32.281Z,16.70
2022-11-28T09:01:59.490Z,15.02
2022-11-28T09:04:26.443Z,16.40
2022-11-28T09:06:53.687Z,21.20
2022-11-28T09:09:20.650Z,24.38
2022-11-28T09:11:47.534Z,20.48
2022-11-28T09:14:14.437Z,19.90
2022-11-28T09:16:41.624Z,16.23
2022-11-28T09:19:10.690Z,18.08
2022-11-28T09:21:38.115Z,28.38
2022-11-28T09:24:05.543Z,17.10
2022-11-28T09:26:33.322Z,18.52
2022-11-28T09:29:00.395Z,21.73
2022-11-28T09:31:27.677Z,19.15
2022-11-28T09:33:54.677Z,11.45
2022-11-28T09:36:23.512Z,14.05
2022-11-28T09:38:50.592Z,13.13
2022-11-28T09:41:26.435Z,13.32
2022-11-28T09:43:58.791Z,19.13
2022-11-28T09:46:29.392Z,12.52
2022-11-28T09:49:00.895Z,10.38
2022-11-28T09:51:50.563Z,11.80
2022-11-28T09:54:18.659Z,11.77
2022-11-28T09:56:48.610Z,12.63
2022-11-28T09:59:25.825Z,10.68
2022-11-28T10:02:04.325Z,13.55
2022-11-28T10:05:12.626Z,14.20
2022-11-28T10:08:20.318Z,11.52
2022-11-28T10:10:59.306Z,12.40
2022-11-28T10:14:08.221Z,14.48
2022-11-28T10:16:47.674Z,9.30
2022-11-28T10:19:46.038Z,14.20
2022-11-28T10:22:06.696Z,10.77
2022-11-28T10:24:43.869Z,9.57
2022-11-28T10:27:13.661Z,9.85
2022-11-28T10:29:56.361Z,23.63
2022-11-28T10:32:30.859Z,15.55
2022-11-28T10:35:04.709Z,11.45
2022-11-28T10:37:34.008Z,15.65
2022-11-28T10:40:28.468Z,11.50
2022-11-28T10:43:24.639Z,14.63
2022-11-28T10:46:18.324Z,12.60
2022-11-28T10:49:20.952Z,11.15
2022-11-28T10:52:15.869Z,11.43
2022-11-28T10:54:48.281Z,10.75
2022-11-28T10:57:53.302Z,13.10
2022-11-28T11:00:20.613Z,12.65
2022-11-28T11:02:55.380Z,14.68
2022-11-28T11:05:27.136Z,11.68
2022-11-28T11:07:56.738Z,10.60
2022-11-28T11:10:26.129Z,8.48
2022-11-28T11:12:53.504Z,10.45
2022-11-28T11:15:30.188Z,7.72
2022-11-28T11:17:58.831Z,10.18
2022-11-28T11:20:28.685Z,11.48
2022-11-28T11:23:00.422Z,12.57
2022-11-28T11:25:32.691Z,12.15
2022-11-28T11:28:02.294Z,8.97
2022-11-28T11:30:35.442Z,13.88
2022-11-28T11:33:05.077Z,11.43
2022-11-28T11:35:36.310Z,10.15
2022-11-28T11:38:20.974Z,15.70
2022-11-28T11:40:49.819Z,12.80
2022-11-28T11:43:36.934Z,11.63
2022-11-28T11:46:08.300Z,11.50
2022-11-28T11:48:53.988Z,16.90
2022-11-28T11:51:35.062Z,11.30
2022-11-28T11:54:13.976Z,12.55
2022-11-28T11:56:44.446Z,12.30
2022-11-28T11:59:27.173Z,12.77
2022-11-28T12:02:02.361Z,13.68
2022-11-28T12:04:45.693Z,14.05
2022-11-28T12:07:24.426Z,15.88
2022-11-28T12:09:54.748Z,11.73
2022-11-28T12:12:29.404Z,11.73
2022-11-28T12:14:56.248Z,11.48
2022-11-28T12:17:58.367Z,13.15
2022-11-28T12:20:56.982Z,13.95
2022-11-28T12:24:15.604Z,10.77
2022-11-28T12:26:50.625Z,13.48
2022-11-28T12:29:26.058Z,14.25
2022-11-28T12:32:34.587Z,17.85
2022-11-28T12:35:34.814Z,19.02
2022-11-28T12:38:18.249Z,16.65
2022-11-28T12:41:03.061Z,19.70
2022-11-28T12:44:00.563Z,14.63
2022-11-28T12:46:35.787Z,12.27
2022-11-28T12:49:25.250Z,13.20
2022-11-28T12:52:06.994Z,11.05
2022-11-28T12:54:38.723Z,14.98
2022-11-28T12:57:19.254Z,11.35
2022-11-28T12:59:52.172Z,12.02
2022-11-28T13:02:34.579Z,16.90
2022-11-28T13:05:23.026Z,14.03
2022-11-28T13:07:58.784Z,13.95
2022-11-28T13:11:02.345Z,32.28
2022-11-28T13:13:53.924Z,12.52
2022-11-28T13:16:38.564Z,23.30
2022-11-28T13:19:46.296Z,15.93
2022-11-28T13:22:29.734Z,12.73
2022-11-28T13:25:07.187Z,15.82
2022-11-28T13:28:02.368Z,17.25
2022-11-28T13:30:32.487Z,13.35
2022-11-28T13:33:14.763Z,14.07
2022-11-28T13:35:43.004Z,11.70
2022-11-28T13:38:35.970Z,11.73
2022-11-28T13:41:06.711Z,11.43
2022-11-28T13:43:52.845Z,15.75
2022-11-28T13:46:19.941Z,15.93
2022-11-28T13:51:35.271Z,16.50
2022-11-28T13:54:20.448Z,17.63
2022-11-28T13:57:04.746Z,15.32
2022-11-28T13:59:32.244Z,13.23
2022-11-28T14:02:02.128Z,15.48
2022-11-28T14:04:30.249Z,14.63
2022-11-28T14:07:02.642Z,15.73
2022-11-28T14:09:54.021Z,16.15
2022-11-28T14:12:47.350Z,13.50
2022-11-28T14:15:20.194Z,13.43
2022-11-28T14:18:19.159Z,15.85
2022-11-28T14:20:59.197Z,22.77
2022-11-28T14:23:45.680Z,21.77
2022-11-28T14:26:21.160Z,13.63
2022-11-28T14:28:48.906Z,12.65
2022-11-28T14:31:32.648Z,11.90
2022-11-28T14:34:01.276Z,11.82
2022-11-28T14:36:31.009Z,89.20
2022-11-28T14:39:05.285Z,18.60
2022-11-28T14:41:32.453Z,13.52
2022-11-28T14:44:36.511Z,11.65
2022-11-28T14:47:32.210Z,16.63
2022-11-28T14:50:04.861Z,17.75
2022-11-28T14:52:42.393Z,17.88
2022-11-28T14:55:12.058Z,24.52
2022-11-28T14:58:00.244Z,16.48
2022-11-28T15:00:44.008Z,23.98
2022-11-28T15:03:35.691Z,23.58
2022-11-28T15:06:18.558Z,18.88
2022-11-28T15:09:00.114Z,19.67
2022-11-28T15:11:42.850Z,17.67
2022-11-28T15:14:18.312Z,17.92
2022-11-28T15:16:50.420Z,19.73
2022-11-28T15:19:22.426Z,20.73
2022-11-28T15:21:51.658Z,27.95
2022-11-28T15:24:27.477Z,25.70
2022-11-28T15:26:57.744Z,27.48
2022-11-28T15:29:28.648Z,41.75
2022-11-28T15:31:57.512Z,19.75
2022-11-28T15:34:33.155Z,17.23
2022-11-28T15:37:27.485Z,16.83
2022-11-28T15:39:54.550Z,15.52
2022-11-28T15:42:21.383Z,23.77
2022-11-28T15:44:57.506Z,27.13
2022-11-28T15:47:24.953Z,26.55
2022-11-28T15:50:05.586Z,23.33
2022-11-28T15:52:32.527Z,22.50
2022-11-28T15:54:59.423Z,26.65
2022-11-28T15:57:28.697Z,24.98
2022-11-28T15:59:56.909Z,32.60
2022-11-28T16:02:33.339Z,47.47
2022-11-28T16:05:09.321Z,34.72
2022-11-28T16:07:40.882Z,23.55
2022-11-28T16:10:21.371Z,21.40
2022-11-28T16:12:48.594Z,26.38
2022-11-28T16:15:23.464Z,21.05
2022-11-28T16:17:50.669Z,25.30
2022-11-28T16:20:36.346Z,25.58
2022-11-28T16:23:20.771Z,29.17
2022-11-28T16:26:01.478Z,29.85
2022-11-28T16:28:36.482Z,30.15
2022-11-28T16:31:11.260Z,24.17
2022-11-28T16:33:43.121Z,31.30
2022-11-28T16:36:21.123Z,41.53
2022-11-28T16:38:49.849Z,36.72
2022-11-28T16:41:27.733Z,29.33
2022-11-28T16:43:59.395Z,33.70
2022-11-28T16:46:37.599Z,41.33
2022-11-28T16:49:07.188Z,29.02
2022-11-28T16:51:42.295Z,29.65
2022-11-28T16:54:22.968Z,27.48
2022-11-28T16:56:49.888Z,29.35
2022-11-28T16:59:19.299Z,36.97
2022-11-28T17:01:53.058Z,24.05
2022-11-28T17:04:21.474Z,26.60
2022-11-28T17:06:48.974Z,29.45
2022-11-28T17:09:15.836Z,26.02
2022-11-28T17:12:07.484Z,22.58
2022-11-28T17:14:35.168Z,24.00
2022-11-28T17:17:02.073Z,19.17
2022-11-28T17:19:29.220Z,25.55
2022-11-28T17:21:58.603Z,23.23
2022-11-28T17:24:27.702Z,22.45
2022-11-28T17:26:54.817Z,27.27
2022-11-28T17:29:22.302Z,26.00
2022-11-28T17:31:49.631Z,24.10
2022-11-28T17:34:21.002Z,24.63
2022-11-28T17:36:48.385Z,27.50
2022-11-28T17:39:15.975Z,32.97
2022-11-28T17:41:43.528Z,25.48
2022-11-28T17:44:20.804Z,28.65
2022-11-28T17:46:48.339Z,22.23
2022-11-28T17:49:15.243Z,24.33
2022-11-28T17:51:42.593Z,55.65
2022-11-28T17:54:17.074Z,53.10
2022-11-28T17:56:45.106Z,28.65
2022-11-28T17:59:12.921Z,26.02
2022-11-28T18:01:43.587Z,23.65
2022-11-28T18:04:10.761Z,22.33
2022-11-28T18:06:37.945Z,38.72
2022-11-28T18:09:11.699Z,27.08
2022-11-28T18:11:39.860Z,33.30
2022-11-28T18:14:08.600Z,34.72
2022-11-28T18:16:45.645Z,30.95
2022-11-28T18:19:12.823Z,27.88
2022-11-28T18:21:44.201Z,21.08
2022-11-28T18:24:11.122Z,37.20
2022-11-28T18:26:38.087Z,25.67
2022-11-28T18:29:05.215Z,26.55
2022-11-28T18:31:32.044Z,32.78
2022-11-28T18:34:03.813Z,28.38
2022-11-28T18:36:32.501Z,25.88
2022-11-28T18:39:01.367Z,26.23
2022-11-28T18:41:29.170Z,31.83
2022-11-28T18:44:00.304Z,25.50
2022-11-28T18:46:28.039Z,43.35
2022-11-28T18:48:54.912Z,46.70
2022-11-28T18:51:26.909Z,47.13
2022-11-28T18:53:55.670Z,23.20
2022-11-28T18:56:24.078Z,23.60
2022-11-28T18:58:52.625Z,21.45
2022-11-28T19:01:30.893Z,24.40
2022-11-28T19:04:01.229Z,25.13
2022-11-28T19:06:28.657Z,24.63
2022-11-28T19:08:57.579Z,24.17
2022-11-28T19:11:24.555Z,20.35
2022-11-28T19:13:53.667Z,21.38
2022-11-28T19:16:26.866Z,21.98
2022-11-28T19:18:56.403Z,21.08
2022-11-28T19:21:29.155Z,26.17
2022-11-28T19:24:02.245Z,24.13
2022-11-28T19:29:22.151Z,21.45
2022-11-28T19:34:32.987Z,20.10
2022-11-28T19:37:05.160Z,18.23
2022-11-28T20:15:16.719Z,16.85
2022-11-28T20:20:12.318Z,15.15
2022-11-28T20:33:05.079Z,18.50
2022-11-28T20:35:43.858Z,16.38
2022-11-28T20:38:26.384Z,19.20
2022-11-28T20:44:32.765Z,16.42
2022-11-28T20:46:59.670Z,15.38
2022-11-28T20:49:31.252Z,18.33
2022-11-28T20:52:24.103Z,15.05
2022-11-28T20:54:51.918Z,17.70
2022-11-28T20:57:22.747Z,14.32
2022-11-28T20:59:55.732Z,13.45
2022-11-28T21:02:23.275Z,14.75
2022-11-28T21:04:56.603Z,18.17
2022-11-28T21:07:27.295Z,15.18
2022-11-28T21:09:59.851Z,14.70
2022-11-28T21:12:26.749Z,14.90
2022-11-28T21:14:54.753Z,12.85
2022-11-28T21:17:21.856Z,18.27
2022-11-28T21:19:48.803Z,14.25
2022-11-28T21:22:15.646Z,14.27
2022-11-28T21:24:42.537Z,12.30
2022-11-28T21:27:12.522Z,11.48
2022-11-28T21:29:39.400Z,12.68
2022-11-28T21:32:06.490Z,14.40
2022-11-28T21:34:33.909Z,14.93
2022-11-28T21:37:00.707Z,16.20
2022-11-28T21:39:28.142Z,14.07
2022-11-28T21:41:55.005Z,16.27
2022-11-28T21:44:22.015Z,14.85
2022-11-28T21:46:48.987Z,15.32
2022-11-28T21:49:15.867Z,14.75
2022-11-28T21:51:42.735Z,14.93
2022-11-28T21:54:10.973Z,13.90
2022-11-28T21:56:37.956Z,14.70
2022-11-28T21:59:05.010Z,15.63
2022-11-28T22:01:32.012Z,15.48
2022-11-28T22:04:02.663Z,15.35
2022-11-28T22:06:30.298Z,13.45
2022-11-28T22:08:57.404Z,15.93
2022-11-28T22:11:24.944Z,15.05
2022-11-28T22:13:52.868Z,14.98
2022-11-28T22:16:25.349Z,14.93
2022-11-28T22:18:53.870Z,13.50
2022-11-28T22:21:50.717Z,13.52
2022-11-28T22:24:08.692Z,14.73
2022-11-28T22:26:38.463Z,16.73
2022-11-28T22:29:05.576Z,18.95
2022-11-28T22:31:32.649Z,13.85
2022-11-28T22:33:59.685Z,17.83
2022-11-28T22:36:26.715Z,15.70
2022-11-28T22:38:58.680Z,15.27
2022-11-28T22:41:29.192Z,14.98
2022-11-28T22:43:59.579Z,17.02
2022-11-28T22:46:26.825Z,18.10
2022-11-28T22:48:53.673Z,15.57
2022-11-28T22:51:25.404Z,15.00
2022-11-28T22:53:56.994Z,15.43
2022-11-28T22:56:24.224Z,14.63
2022-11-28T22:58:51.330Z,14.43
2022-11-28T23:01:26.984Z,13.07
2022-11-28T23:03:54.520Z,16.75
2022-11-28T23:06:23.970Z,13.63
2022-11-28T23:08:51.176Z,15.57
2022-11-28T23:11:20.921Z,14.10
2022-11-28T23:13:49.184Z,14.73
2022-11-28T23:16:24.976Z,15.57
2022-11-28T23:18:54.201Z,14.05
2022-11-28T23:21:22.536Z,11.88
2022-11-28T23:23:49.932Z,15.07
2022-11-28T23:26:20.004Z,12.75
2022-11-28T23:28:47.218Z,13.02
2022-11-28T23:31:19.825Z,16.00
2022-11-28T23:33:47.329Z,12.88
2022-11-28T23:36:42.773Z,16.80
2022-11-28T23:39:20.473Z,17.13
2022-11-28T23:41:47.712Z,14.88
2022-11-28T23:44:15.854Z,12.93
2022-11-28T23:46:43.211Z,13.88
2022-11-28T23:49:10.496Z,14.80
2022-11-28T23:51:38.439Z,15.00
2022-11-28T23:54:05.610Z,14.35
2022-11-28T23:56:35.080Z,14.95
2022-11-28T23:59:04.372Z,15.82
